createdAt,value
2018-11-21T00:00:30.602Z,0
2018-11-21T00:01:44.937Z,0
2018-11-21T00:02:58.928Z,0
2018-11-21T00:04:13.383Z,0
2018-11-21T00:05:27.822Z,0
2018-11-21T00:06:42.858Z,0
2018-11-21T00:08:12.075Z,0
2018-11-21T00:09:26.818Z,0
2018-11-21T00:10:41.766Z,0
2018-11-21T00:11:56.711Z,0
2018-11-21T00:13:10.921Z,0
2018-11-21T00:14:25.624Z,0
2018-11-21T00:15:40.168Z,0
2018-11-21T00:17:12.015Z,0
2018-11-21T00:18:26.188Z,0
2018-11-21T00:19:40.606Z,0
2018-11-21T00:20:55.088Z,0
2018-11-21T00:22:09.785Z,0
2018-11-21T00:23:25.085Z,0
2018-11-21T00:24:39.796Z,0
2018-11-21T00:25:53.994Z,0
2018-11-21T00:27:10.618Z,0
2018-11-21T00:28:24.951Z,0
2018-11-21T00:29:39.334Z,0
2018-11-21T00:30:53.759Z,0
2018-11-21T00:32:07.681Z,0
2018-11-21T00:33:21.848Z,0
2018-11-21T00:34:35.999Z,0
2018-11-21T00:35:50.588Z,0
2018-11-21T00:37:05.047Z,0
2018-11-21T00:38:19.522Z,0
2018-11-21T00:39:34.230Z,0
2018-11-21T00:40:48.959Z,0
2018-11-21T00:43:33.365Z,0
2018-11-21T00:44:48.286Z,0
2018-11-21T00:46:03.375Z,0
2018-11-21T00:47:18.665Z,0
2018-11-21T00:48:33.330Z,0
2018-11-21T00:49:47.525Z,0
2018-11-21T00:51:01.683Z,0
2018-11-21T00:52:16.209Z,0
2018-11-21T00:53:30.710Z,0
2018-11-21T00:54:44.881Z,0
2018-11-21T00:55:59.095Z,0
2018-11-21T00:57:13.801Z,0
2018-11-21T00:58:28.254Z,0
2018-11-21T00:59:42.598Z,0
2018-11-21T01:00:56.760Z,0
2018-11-21T01:02:10.686Z,0
2018-11-21T01:03:24.954Z,0
2018-11-21T01:04:39.464Z,0
2018-11-21T01:05:54.023Z,0
2018-11-21T01:07:08.466Z,0
2018-11-21T01:08:22.673Z,0
2018-11-21T01:09:37.081Z,0
2018-11-21T01:10:52.111Z,0
2018-11-21T01:12:06.930Z,0
2018-11-21T01:13:21.227Z,0
2018-11-21T01:14:36.608Z,0
2018-11-21T01:15:50.770Z,0
2018-11-21T01:17:05.091Z,0
2018-11-21T01:18:19.669Z,0
2018-11-21T01:19:34.111Z,0
2018-11-21T01:20:49.098Z,0
2018-11-21T01:22:03.578Z,0
2018-11-21T01:23:32.616Z,0
2018-11-21T01:24:47.440Z,0
2018-11-21T01:27:35.327Z,0
2018-11-21T01:28:50.510Z,0
2018-11-21T01:30:05.500Z,0
2018-11-21T01:31:19.899Z,0
2018-11-21T01:32:33.857Z,0
2018-11-21T01:33:48.641Z,0
2018-11-21T01:35:03.455Z,0
2018-11-21T01:36:31.007Z,0
2018-11-21T01:37:45.321Z,0
2018-11-21T01:39:00.393Z,0
2018-11-21T01:40:14.655Z,0
2018-11-21T01:41:29.108Z,0
2018-11-21T01:42:44.628Z,0
2018-11-21T01:43:58.589Z,0
2018-11-21T01:45:12.553Z,0
2018-11-21T01:46:26.473Z,0
2018-11-21T01:47:41.162Z,0
2018-11-21T01:48:55.604Z,0
2018-11-21T01:50:10.390Z,0
2018-11-21T01:51:24.827Z,0
2018-11-21T01:52:39.535Z,0
2018-11-21T01:53:54.190Z,0
2018-11-21T01:55:08.894Z,0
2018-11-21T01:56:38.370Z,0
2018-11-21T01:57:52.889Z,0
2018-11-21T01:59:07.362Z,0
2018-11-21T02:00:22.042Z,0
2018-11-21T02:01:37.175Z,0
2018-11-21T02:02:51.834Z,0
2018-11-21T02:04:06.023Z,0
2018-11-21T02:05:20.322Z,0
2018-11-21T02:06:34.544Z,0
2018-11-21T02:07:48.860Z,0
2018-11-21T02:09:03.521Z,0
2018-11-21T02:10:17.508Z,0
2018-11-21T02:11:32.085Z,0
2018-11-21T02:12:47.034Z,0
2018-11-21T02:14:02.100Z,0
2018-11-21T02:15:16.611Z,0
2018-11-21T02:16:30.277Z,0
2018-11-21T02:17:44.935Z,0
2018-11-21T02:18:59.132Z,0
2018-11-21T02:20:13.496Z,0
2018-11-21T02:21:28.163Z,0
2018-11-21T02:22:42.624Z,0
2018-11-21T02:23:56.796Z,0
2018-11-21T02:25:11.622Z,0
2018-11-21T02:26:26.793Z,0
2018-11-21T02:27:41.269Z,0
2018-11-21T02:28:55.940Z,0
2018-11-21T02:30:10.160Z,0
2018-11-21T02:31:24.859Z,0
2018-11-21T02:32:39.617Z,0
2018-11-21T02:33:54.158Z,0
2018-11-21T02:35:09.264Z,0
2018-11-21T02:36:23.203Z,0
2018-11-21T02:37:37.671Z,0
2018-11-21T02:38:52.539Z,0
2018-11-21T02:40:07.383Z,0
2018-11-21T02:41:21.611Z,0
2018-11-21T02:42:36.042Z,0
2018-11-21T02:43:50.918Z,0
2018-11-21T02:45:05.871Z,0
2018-11-21T02:46:20.568Z,0
2018-11-21T02:47:34.998Z,0
2018-11-21T02:48:49.045Z,0
2018-11-21T02:50:02.708Z,0
2018-11-21T02:51:17.456Z,0
2018-11-21T02:52:31.705Z,0
2018-11-21T02:53:45.909Z,0
2018-11-21T02:55:00.864Z,0
2018-11-21T02:56:15.026Z,0
2018-11-21T02:57:30.228Z,0
2018-11-21T02:58:44.951Z,0
2018-11-21T02:59:59.284Z,0
2018-11-21T03:01:14.290Z,0
2018-11-21T03:02:28.987Z,0
2018-11-21T03:03:44.191Z,0
2018-11-21T03:04:58.372Z,0
2018-11-21T03:06:13.528Z,0
2018-11-21T03:07:28.251Z,0
2018-11-21T03:08:42.238Z,0
2018-11-21T03:09:57.568Z,0
2018-11-21T03:11:11.872Z,0
2018-11-21T03:12:26.709Z,0
2018-11-21T03:13:40.877Z,0
2018-11-21T03:14:55.414Z,0
2018-11-21T03:16:10.655Z,0
2018-11-21T03:17:24.909Z,0
2018-11-21T03:18:39.525Z,0
2018-11-21T03:19:54.145Z,0
2018-11-21T03:21:08.127Z,0
2018-11-21T03:22:23.355Z,0
2018-11-21T03:23:37.764Z,0
2018-11-21T03:24:52.014Z,0
2018-11-21T03:26:21.067Z,0
2018-11-21T03:27:35.698Z,0
2018-11-21T03:28:49.712Z,0
2018-11-21T03:30:04.259Z,0
2018-11-21T03:31:19.191Z,0
2018-11-21T03:32:33.884Z,0
2018-11-21T03:33:48.899Z,0
2018-11-21T03:35:16.404Z,0
2018-11-21T03:36:30.859Z,0
2018-11-21T03:37:45.462Z,0
2018-11-21T03:38:59.585Z,0
2018-11-21T03:40:14.074Z,0
2018-11-21T03:41:29.018Z,0
2018-11-21T03:42:43.431Z,0
2018-11-21T03:43:58.039Z,0
2018-11-21T03:45:28.149Z,0
2018-11-21T03:46:42.681Z,0
2018-11-21T03:47:56.947Z,0
2018-11-21T03:49:12.916Z,0
2018-11-21T03:50:27.447Z,0
2018-11-21T03:51:42.099Z,0
2018-11-21T03:52:56.405Z,0
2018-11-21T03:54:10.335Z,0
2018-11-21T03:55:25.107Z,0
2018-11-21T03:56:39.515Z,0
2018-11-21T03:57:54.018Z,0
2018-11-21T03:59:08.762Z,0
2018-11-21T04:00:23.456Z,0
2018-11-21T04:01:37.882Z,0
2018-11-21T04:02:52.310Z,0
2018-11-21T04:04:07.068Z,0
2018-11-21T04:05:21.117Z,0
2018-11-21T04:06:35.870Z,0
2018-11-21T04:07:50.105Z,0
2018-11-21T04:09:04.036Z,0
2018-11-21T04:10:18.455Z,0
2018-11-21T04:11:33.164Z,0
2018-11-21T04:12:47.315Z,0
2018-11-21T04:14:02.473Z,0
2018-11-21T04:15:17.538Z,0
2018-11-21T04:16:32.017Z,0
2018-11-21T04:17:46.721Z,0
2018-11-21T04:19:01.188Z,0
2018-11-21T04:20:15.277Z,0
2018-11-21T04:21:29.706Z,0
2018-11-21T04:22:44.293Z,0
2018-11-21T04:23:58.482Z,0
2018-11-21T04:25:12.146Z,0
2018-11-21T04:26:26.739Z,0
2018-11-21T04:27:41.646Z,0
2018-11-21T04:28:56.268Z,0
2018-11-21T04:30:10.277Z,0
2018-11-21T04:31:24.299Z,0
2018-11-21T04:32:38.495Z,0
2018-11-21T04:33:53.129Z,0
2018-11-21T04:35:07.614Z,0
2018-11-21T04:36:21.668Z,0
2018-11-21T04:37:38.091Z,0
2018-11-21T04:38:52.911Z,0
2018-11-21T04:40:07.796Z,0
2018-11-21T04:41:22.465Z,0
2018-11-21T04:42:36.795Z,0
2018-11-21T04:43:50.674Z,0
2018-11-21T04:45:04.510Z,0
2018-11-21T04:46:19.456Z,0
2018-11-21T04:47:34.253Z,0
2018-11-21T04:48:49.939Z,0
2018-11-21T04:50:03.914Z,0
2018-11-21T04:51:18.219Z,0
2018-11-21T04:52:32.408Z,0
2018-11-21T04:53:46.901Z,0
2018-11-21T04:55:01.231Z,0
2018-11-21T04:56:30.609Z,0
2018-11-21T04:57:45.533Z,0
2018-11-21T04:59:00.383Z,0
2018-11-21T05:00:14.413Z,0
2018-11-21T05:01:29.133Z,0
2018-11-21T05:02:45.091Z,0
2018-11-21T05:03:59.533Z,0
2018-11-21T05:05:29.386Z,0
2018-11-21T05:06:44.647Z,0
2018-11-21T05:07:58.903Z,0
2018-11-21T05:09:13.606Z,0
2018-11-21T05:10:28.206Z,0
2018-11-21T05:11:43.549Z,0
2018-11-21T05:12:57.971Z,0
2018-11-21T05:14:27.164Z,0
2018-11-21T05:15:42.111Z,0
2018-11-21T05:16:58.062Z,0
2018-11-21T05:18:11.944Z,0
2018-11-21T05:19:26.639Z,0
2018-11-21T05:20:40.399Z,0
2018-11-21T05:21:54.859Z,0
2018-11-21T05:23:10.593Z,0
2018-11-21T05:24:26.938Z,0
2018-11-21T05:25:41.379Z,0
2018-11-21T05:26:56.392Z,0
2018-11-21T05:28:10.963Z,0
2018-11-21T05:29:25.425Z,0
2018-11-21T05:30:40.127Z,0
2018-11-21T05:31:53.826Z,0
2018-11-21T05:33:08.383Z,0
2018-11-21T05:34:22.533Z,0
2018-11-21T05:35:37.044Z,0
2018-11-21T05:36:50.954Z,0
2018-11-21T05:38:05.458Z,0
2018-11-21T05:39:19.921Z,0
2018-11-21T05:40:34.397Z,0
2018-11-21T05:41:48.950Z,0
2018-11-21T05:43:03.902Z,0
2018-11-21T05:44:17.975Z,0
2018-11-21T05:45:32.824Z,0
2018-11-21T05:46:50.512Z,0
2018-11-21T05:48:01.785Z,0
2018-11-21T05:49:15.691Z,0
2018-11-21T05:50:30.284Z,0
2018-11-21T05:51:44.222Z,0
2018-11-21T05:52:58.395Z,0
2018-11-21T05:54:14.703Z,0
2018-11-21T05:55:29.139Z,0
2018-11-21T05:56:43.563Z,0
2018-11-21T05:57:57.755Z,0
2018-11-21T05:59:13.118Z,0
2018-11-21T06:00:27.378Z,0
2018-11-21T06:01:41.869Z,0
2018-11-21T06:02:56.533Z,0
2018-11-21T06:04:10.951Z,0
2018-11-21T06:05:24.957Z,0
2018-11-21T06:06:39.768Z,0
2018-11-21T06:07:54.596Z,0
2018-11-21T06:09:09.417Z,0
2018-11-21T06:10:23.602Z,0
2018-11-21T06:11:37.546Z,0
2018-11-21T06:12:51.792Z,0
2018-11-21T06:14:05.951Z,0
2018-11-21T06:15:20.310Z,0
2018-11-21T06:16:34.765Z,0
2018-11-21T06:17:54.874Z,0
2018-11-21T06:19:09.119Z,0
2018-11-21T06:20:39.265Z,0
2018-11-21T06:21:53.786Z,0
2018-11-21T06:24:39.487Z,0
2018-11-21T06:25:53.598Z,0
2018-11-21T06:27:08.033Z,0
2018-11-21T06:28:23.782Z,0
2018-11-21T06:29:37.738Z,0
2018-11-21T06:30:52.681Z,0
2018-11-21T06:32:06.884Z,0
2018-11-21T06:33:28.781Z,0
2018-11-21T06:34:43.269Z,0
2018-11-21T06:35:58.271Z,0
2018-11-21T06:37:13.284Z,0
2018-11-21T06:38:27.794Z,0
2018-11-21T06:39:42.752Z,0
2018-11-21T06:40:57.218Z,0
2018-11-21T06:42:11.665Z,0
2018-11-21T06:43:26.795Z,0
2018-11-21T06:44:41.291Z,0
2018-11-21T06:45:55.714Z,0
2018-11-21T06:47:09.679Z,0
2018-11-21T06:48:24.149Z,0
2018-11-21T06:50:37.060Z,0
2018-11-21T06:51:51.313Z,0
2018-11-21T06:53:19.896Z,0
2018-11-21T06:54:34.326Z,0
2018-11-21T06:57:47.790Z,0
2018-11-21T06:59:07.315Z,0
2018-11-21T07:00:22.028Z,0
2018-11-21T07:01:37.081Z,5
2018-11-21T07:08:30.795Z,5
2018-11-21T07:09:45.026Z,5
2018-11-21T07:10:59.756Z,5
2018-11-21T07:12:14.484Z,5
2018-11-21T07:15:27.208Z,5
2018-11-21T07:16:42.286Z,5
2018-11-21T07:17:57.162Z,10
2018-11-21T07:19:55.732Z,10
2018-11-21T07:21:10.799Z,10
2018-11-21T07:22:25.353Z,10
2018-11-21T07:23:40.139Z,10
2018-11-21T07:24:55.982Z,10
2018-11-21T07:26:10.304Z,10
2018-11-21T07:27:24.578Z,15
2018-11-21T07:28:38.821Z,15
2018-11-21T07:29:53.046Z,10
2018-11-21T07:31:07.791Z,10
2018-11-21T07:32:21.480Z,15
2018-11-21T07:33:35.182Z,10
2018-11-21T07:34:49.906Z,10
2018-11-21T07:36:04.762Z,10
2018-11-21T07:37:19.606Z,10
2018-11-21T07:38:34.127Z,15
2018-11-21T07:39:48.176Z,10
2018-11-21T07:41:03.835Z,10
2018-11-21T07:42:18.466Z,10
2018-11-21T07:43:47.882Z,10
2018-11-21T07:45:02.304Z,10
2018-11-21T07:46:17.209Z,15
2018-11-21T07:47:36.003Z,15
2018-11-21T07:49:05.328Z,15
2018-11-21T07:50:19.562Z,15
2018-11-21T07:51:34.630Z,15
2018-11-21T07:52:49.098Z,15
2018-11-21T07:54:03.286Z,15
2018-11-21T07:55:17.738Z,20
2018-11-21T07:56:32.719Z,20
2018-11-21T07:57:47.168Z,20
2018-11-21T07:59:01.367Z,20
2018-11-21T08:00:16.044Z,25
2018-11-21T08:01:31.117Z,25
2018-11-21T08:02:45.701Z,25
2018-11-21T08:04:00.261Z,25
2018-11-21T08:05:14.825Z,25
2018-11-21T08:06:29.026Z,25
2018-11-21T08:07:43.266Z,25
2018-11-21T08:08:57.983Z,25
2018-11-21T08:10:13.688Z,25
2018-11-21T08:11:28.182Z,25
2018-11-21T08:12:41.846Z,25
2018-11-21T08:13:56.056Z,25
2018-11-21T08:15:10.768Z,25
2018-11-21T08:16:31.884Z,25
2018-11-21T08:17:46.746Z,30
2018-11-21T08:19:01.432Z,30
2018-11-21T08:20:15.385Z,30
2018-11-21T08:21:30.449Z,30
2018-11-21T08:22:44.658Z,30
2018-11-21T08:23:59.322Z,30
2018-11-21T08:25:14.386Z,30
2018-11-21T08:26:29.335Z,25
2018-11-21T08:27:43.281Z,25
2018-11-21T08:28:58.243Z,25
2018-11-21T08:30:11.919Z,25
2018-11-21T08:31:26.424Z,30
2018-11-21T08:33:25.202Z,30
2018-11-21T08:34:39.914Z,30
2018-11-21T08:35:54.565Z,35
2018-11-21T08:37:09.131Z,35
2018-11-21T08:40:36.856Z,35
2018-11-21T08:43:23.998Z,30
2018-11-21T08:46:52.301Z,30
2018-11-21T08:48:06.924Z,35
2018-11-21T08:49:21.835Z,35
2018-11-21T08:50:51.789Z,35
2018-11-21T08:52:15.727Z,35
2018-11-21T08:53:30.018Z,35
2018-11-21T08:54:43.432Z,35
2018-11-21T08:55:57.922Z,35
2018-11-21T08:57:27.131Z,35
2018-11-21T08:58:41.448Z,40
2018-11-21T08:59:55.741Z,40
2018-11-21T09:03:08.543Z,40
2018-11-21T09:04:23.179Z,40
2018-11-21T09:05:37.233Z,40
2018-11-21T09:08:49.976Z,45
2018-11-21T09:10:04.854Z,40
2018-11-21T09:11:19.558Z,45
2018-11-21T09:12:33.793Z,45
2018-11-21T09:13:48.926Z,40
2018-11-21T09:15:02.948Z,40
2018-11-21T09:16:18.047Z,45
2018-11-21T09:19:45.727Z,45
2018-11-21T09:20:59.857Z,45
2018-11-21T09:22:14.107Z,45
2018-11-21T09:23:28.088Z,45
2018-11-21T09:24:42.860Z,45
2018-11-21T09:25:57.614Z,45
2018-11-21T09:27:12.737Z,50
2018-11-21T09:28:27.850Z,50
2018-11-21T09:29:42.861Z,55
2018-11-21T09:30:57.543Z,55
2018-11-21T09:32:12.506Z,55
2018-11-21T09:33:27.470Z,55
2018-11-21T09:34:42.021Z,50
2018-11-21T09:35:56.886Z,50
2018-11-21T09:37:11.905Z,50
2018-11-21T09:38:26.571Z,50
2018-11-21T09:39:41.368Z,50
2018-11-21T09:40:56.968Z,50
2018-11-21T09:42:29.092Z,50
2018-11-21T09:43:45.166Z,55
2018-11-21T09:45:01.334Z,60
2018-11-21T09:46:17.256Z,65
2018-11-21T09:47:29.853Z,65
2018-11-21T09:48:45.563Z,70
2018-11-21T09:50:00.881Z,70
2018-11-21T09:51:32.017Z,65
2018-11-21T09:52:50.255Z,70
2018-11-21T09:54:18.304Z,70
2018-11-21T09:55:32.609Z,70
2018-11-21T09:56:47.387Z,75
2018-11-21T09:58:02.470Z,75
2018-11-21T09:59:16.435Z,75
2018-11-21T10:00:31.158Z,80
2018-11-21T10:01:46.052Z,75
2018-11-21T10:03:12.219Z,75
2018-11-21T10:04:27.069Z,75
2018-11-21T10:05:42.136Z,70
2018-11-21T10:06:56.919Z,70
2018-11-21T10:08:12.998Z,75
2018-11-21T10:09:27.979Z,70
2018-11-21T10:10:43.382Z,70
2018-11-21T10:11:57.770Z,70
2018-11-21T10:13:13.116Z,75
2018-11-21T10:14:28.310Z,75
2018-11-21T10:15:42.578Z,70
2018-11-21T10:16:57.342Z,70
2018-11-21T10:18:11.873Z,70
2018-11-21T10:19:26.935Z,70
2018-11-21T10:20:41.695Z,70
2018-11-21T10:21:55.626Z,70
2018-11-21T10:23:10.771Z,70
2018-11-21T10:24:25.270Z,70
2018-11-21T10:25:40.041Z,65
2018-11-21T10:26:54.347Z,60
2018-11-21T10:28:08.788Z,60
2018-11-21T10:29:23.816Z,65
2018-11-21T10:36:04.153Z,65
2018-11-21T10:37:18.743Z,60
2018-11-21T10:38:33.555Z,60
2018-11-21T10:39:48.203Z,60
2018-11-21T10:41:12.306Z,60
2018-11-21T10:42:27.147Z,60
2018-11-21T10:43:41.625Z,60
2018-11-21T10:44:57.422Z,65
2018-11-21T10:46:11.808Z,70
2018-11-21T10:47:27.103Z,65
2018-11-21T10:48:41.914Z,65
2018-11-21T10:49:56.190Z,70
2018-11-21T10:51:11.085Z,70
2018-11-21T10:52:31.564Z,70
2018-11-21T10:53:47.124Z,60
2018-11-21T10:55:01.484Z,60
2018-11-21T10:56:16.090Z,60
2018-11-21T10:57:31.035Z,60
2018-11-21T10:58:45.236Z,65
2018-11-21T11:00:00.013Z,65
2018-11-21T11:01:14.998Z,65
2018-11-21T11:02:29.739Z,65
2018-11-21T11:03:43.976Z,70
2018-11-21T11:04:57.746Z,70
2018-11-21T11:06:12.999Z,70
2018-11-21T11:07:28.077Z,70
2018-11-21T11:08:43.280Z,65
2018-11-21T11:09:58.806Z,60
2018-11-21T11:11:13.774Z,65
2018-11-21T11:12:28.773Z,65
2018-11-21T11:13:47.326Z,60
2018-11-21T11:15:01.283Z,60
2018-11-21T11:16:16.047Z,65
2018-11-21T11:17:30.477Z,65
2018-11-21T11:18:45.021Z,70
2018-11-21T11:20:00.291Z,70
2018-11-21T11:21:17.927Z,70
2018-11-21T11:22:34.031Z,70
2018-11-21T11:23:48.692Z,70
2018-11-21T11:25:03.489Z,65
2018-11-21T11:26:17.829Z,65
2018-11-21T11:27:33.541Z,70
2018-11-21T11:28:48.285Z,70
2018-11-21T11:30:02.764Z,70
2018-11-21T11:31:17.306Z,75
2018-11-21T11:32:32.003Z,70
2018-11-21T11:33:48.893Z,70
2018-11-21T11:35:03.549Z,70
2018-11-21T11:36:18.046Z,70
2018-11-21T11:37:32.580Z,70
2018-11-21T11:38:46.813Z,70
2018-11-21T11:40:01.829Z,70
2018-11-21T11:41:16.377Z,70
2018-11-21T11:42:30.874Z,70
2018-11-21T11:43:45.735Z,70
2018-11-21T11:45:00.240Z,65
2018-11-21T11:46:15.085Z,65
2018-11-21T11:47:29.571Z,65
2018-11-21T11:48:43.798Z,65
2018-11-21T11:49:58.789Z,65
2018-11-21T11:51:28.548Z,65
2018-11-21T11:52:42.867Z,65
2018-11-21T11:53:57.428Z,65
2018-11-21T11:55:12.546Z,70
2018-11-21T11:56:27.548Z,70
2018-11-21T11:57:42.183Z,75
2018-11-21T11:59:11.221Z,70
2018-11-21T12:00:31.322Z,75
2018-11-21T12:01:47.010Z,70
2018-11-21T12:03:03.032Z,70
2018-11-21T12:04:17.824Z,70
2018-11-21T12:05:32.489Z,70
2018-11-21T12:07:02.422Z,70
2018-11-21T12:08:16.944Z,70
2018-11-21T12:09:32.465Z,65
2018-11-21T12:10:47.817Z,65
2018-11-21T12:12:07.359Z,65
2018-11-21T12:13:21.602Z,60
2018-11-21T12:14:38.068Z,55
2018-11-21T12:15:52.447Z,45
2018-11-21T12:17:21.718Z,45
2018-11-21T12:18:51.321Z,50
2018-11-21T12:20:46.221Z,55
2018-11-21T12:22:01.786Z,60
2018-11-21T12:23:16.676Z,60
2018-11-21T12:24:33.991Z,60
2018-11-21T12:25:48.802Z,60
2018-11-21T12:27:04.672Z,60
2018-11-21T12:28:19.753Z,60
2018-11-21T12:29:37.641Z,55
